createdAt,value
2022-11-12T00:00:41.877Z,10.50
2022-11-12T00:10:48.799Z,12.43
2022-11-12T00:15:53.628Z,9.55
2022-11-12T00:26:01.187Z,11.80
2022-11-12T00:31:11.140Z,10.38
2022-11-12T00:36:14.485Z,10.55
2022-11-12T00:41:17.970Z,11.57
2022-11-12T00:46:22.780Z,13.00
2022-11-12T00:56:35.290Z,10.18
2022-11-12T01:01:40.715Z,8.45
2022-11-12T01:06:44.532Z,8.85
2022-11-12T01:11:48.354Z,11.10
2022-11-12T01:16:53.015Z,7.78
2022-11-12T01:21:56.545Z,9.05
2022-11-12T01:26:59.813Z,11.23
2022-11-12T01:32:04.618Z,11.00
2022-11-12T01:42:11.557Z,7.50
2022-11-12T01:47:22.685Z,8.35
2022-11-12T01:52:32.168Z,10.98
2022-11-12T01:57:41.605Z,7.90
2022-11-12T02:02:53.234Z,7.93
2022-11-12T02:07:58.671Z,7.22
2022-11-12T02:13:20.637Z,7.82
2022-11-12T02:18:25.593Z,8.00
2022-11-12T02:23:32.343Z,9.65
2022-11-12T02:28:35.900Z,7.07
2022-11-12T02:33:39.121Z,5.78
2022-11-12T02:38:44.129Z,7.60
2022-11-12T02:43:47.565Z,6.70
2022-11-12T02:48:50.918Z,7.72
2022-11-12T02:53:55.678Z,7.60
2022-11-12T03:04:02.192Z,8.32
2022-11-12T03:09:06.848Z,7.35
2022-11-12T03:14:10.359Z,5.63
2022-11-12T03:19:13.823Z,8.60
2022-11-12T03:24:18.574Z,6.72
2022-11-12T03:34:24.842Z,7.72
2022-11-12T03:39:29.576Z,6.35
2022-11-12T03:49:36.241Z,7.88
2022-11-12T03:54:41.054Z,8.00
2022-11-12T04:05:05.212Z,6.80
2022-11-12T04:10:10.489Z,5.97
2022-11-12T04:15:13.984Z,6.10
2022-11-12T04:20:34.976Z,7.55
2022-11-12T04:25:58.684Z,6.65
2022-11-12T04:31:02.050Z,7.30
2022-11-12T04:36:05.572Z,6.18
2022-11-12T04:41:28.264Z,6.22
2022-11-12T04:46:31.669Z,6.03
2022-11-12T04:51:52.489Z,5.70
2022-11-12T04:56:57.397Z,6.75
2022-11-12T05:02:00.667Z,6.43
2022-11-12T05:07:04.400Z,6.18
2022-11-12T05:12:09.544Z,7.03
2022-11-12T05:17:13.113Z,5.90
2022-11-12T05:22:40.384Z,6.53
2022-11-12T05:27:41.461Z,5.40
2022-11-12T05:32:44.735Z,6.13
2022-11-12T05:37:48.267Z,5.90
2022-11-12T05:42:53.018Z,5.40
2022-11-12T05:47:56.545Z,4.70
2022-11-12T05:53:00.146Z,4.30
2022-11-12T05:58:07.937Z,6.05
2022-11-12T06:03:12.739Z,7.35
2022-11-12T06:13:20.858Z,4.63
2022-11-12T06:18:25.616Z,4.60
2022-11-12T06:23:29.203Z,3.45
2022-11-12T06:28:34.046Z,4.13
2022-11-12T06:33:37.490Z,4.35
2022-11-12T06:38:42.372Z,4.13
2022-11-12T06:43:47.229Z,3.55
2022-11-12T06:53:55.302Z,3.05
2022-11-12T06:59:00.358Z,3.90
2022-11-12T07:04:03.766Z,2.67
2022-11-12T07:09:08.120Z,4.82
2022-11-12T07:14:13.159Z,2.58
2022-11-12T07:19:16.829Z,2.97
2022-11-12T07:24:20.157Z,2.72
2022-11-12T07:29:46.415Z,2.97
2022-11-12T07:34:48.540Z,2.28
2022-11-12T07:39:51.802Z,2.38
2022-11-12T07:44:56.422Z,3.45
2022-11-12T07:50:00.371Z,2.80
2022-11-12T07:55:03.604Z,2.37
2022-11-12T08:00:10.972Z,1.90
2022-11-12T08:05:18.833Z,2.47
2022-11-12T08:10:26.696Z,2.53
2022-11-12T08:15:31.694Z,2.67
2022-11-12T08:20:35.226Z,2.20
2022-11-12T08:25:38.645Z,2.03
2022-11-12T08:30:43.416Z,2.28
2022-11-12T08:40:49.781Z,1.90
2022-11-12T08:45:54.532Z,1.90
2022-11-12T08:56:01.493Z,2.05
2022-11-12T09:01:10.080Z,2.67
2022-11-12T09:06:13.534Z,2.03
2022-11-12T09:11:18.215Z,2.90
2022-11-12T09:16:24.522Z,2.20
2022-11-12T09:21:27.801Z,2.42
2022-11-12T09:26:31.241Z,2.78
2022-11-12T09:31:35.880Z,3.17
2022-11-12T09:41:44.287Z,2.28
2022-11-12T09:46:52.994Z,2.35
2022-11-12T09:52:02.754Z,1.80
2022-11-12T09:57:11.369Z,3.22
2022-11-12T10:02:28.853Z,3.35
2022-11-12T10:07:47.839Z,1.90
2022-11-12T10:13:04.867Z,2.60
2022-11-12T10:18:12.800Z,2.30
2022-11-12T10:23:20.829Z,2.40
2022-11-12T10:28:34.278Z,3.25
2022-11-12T10:33:42.017Z,2.58
2022-11-12T10:43:58.567Z,2.38
2022-11-12T10:49:05.346Z,2.40
2022-11-12T10:54:29.300Z,2.08
2022-11-12T10:59:34.047Z,1.75
2022-11-12T11:09:54.108Z,1.95
2022-11-12T11:15:20.167Z,3.22
2022-11-12T11:20:27.585Z,3.20
2022-11-12T11:25:32.853Z,1.80
2022-11-12T11:30:46.860Z,3.38
2022-11-12T11:36:04.914Z,2.57
2022-11-12T11:41:30.409Z,2.83
2022-11-12T11:46:49.737Z,2.45
2022-11-12T11:52:03.139Z,1.92
2022-11-12T11:57:13.141Z,2.72
2022-11-12T12:02:30.152Z,1.95
2022-11-12T12:07:43.437Z,1.98
2022-11-12T12:12:59.065Z,3.03
2022-11-12T12:18:13.887Z,2.80
2022-11-12T12:28:37.790Z,3.63
2022-11-12T12:33:48.394Z,2.47
2022-11-12T12:38:57.337Z,1.55
2022-11-12T12:44:05.732Z,1.75
2022-11-12T12:49:14.541Z,2.35
2022-11-12T12:54:54.786Z,1.92
2022-11-12T13:00:33.816Z,4.05
2022-11-12T13:05:40.404Z,1.98
2022-11-12T13:10:49.717Z,2.42
2022-11-12T13:15:56.255Z,4.40
2022-11-12T13:21:12.110Z,2.10
2022-11-12T13:26:54.220Z,2.40
2022-11-12T13:32:32.374Z,1.55
2022-11-12T13:37:35.913Z,1.98
2022-11-12T13:42:52.295Z,1.60
2022-11-12T13:47:59.630Z,1.33
2022-11-12T13:53:03.361Z,1.80
2022-11-12T13:58:19.772Z,1.43
2022-11-12T14:03:27.084Z,1.20
2022-11-12T14:08:56.974Z,1.52
2022-11-12T14:14:13.405Z,1.20
2022-11-12T14:19:52.836Z,1.70
2022-11-12T14:25:01.580Z,1.20
2022-11-12T14:30:15.310Z,1.63
2022-11-12T14:35:36.197Z,1.17
2022-11-12T14:40:45.538Z,1.13
2022-11-12T14:45:50.368Z,1.35
2022-11-12T14:51:08.001Z,2.03
2022-11-12T14:56:17.823Z,1.70
2022-11-12T15:06:58.541Z,1.38
2022-11-12T15:12:02.153Z,1.38
2022-11-12T15:17:06.442Z,1.55
2022-11-12T15:22:22.979Z,1.10
2022-11-12T15:27:36.374Z,1.08
2022-11-12T15:32:39.593Z,1.95
2022-11-12T15:37:44.671Z,1.27
2022-11-12T15:42:49.339Z,1.30
2022-11-12T15:47:52.937Z,1.00
2022-11-12T15:52:59.584Z,1.20
2022-11-12T15:58:03.146Z,1.10
2022-11-12T16:03:15.049Z,2.05
2022-11-12T16:08:20.464Z,2.88
2022-11-12T16:13:29.381Z,1.25
2022-11-12T16:18:32.982Z,5.05
2022-11-12T16:23:40.122Z,2.03
2022-11-12T16:28:44.038Z,1.88
2022-11-12T16:33:47.585Z,3.13
2022-11-12T16:38:52.503Z,2.03
2022-11-12T16:43:55.897Z,1.70
2022-11-12T16:48:59.372Z,1.80
2022-11-12T16:54:04.160Z,3.08
2022-11-12T16:59:07.710Z,2.90
2022-11-12T17:04:11.613Z,1.92
2022-11-12T17:09:18.718Z,3.00
2022-11-12T17:14:27.105Z,2.33
2022-11-12T17:19:31.943Z,2.45
2022-11-12T17:24:36.691Z,2.03
2022-11-12T17:29:40.289Z,1.80
2022-11-12T17:34:43.702Z,3.40
2022-11-12T17:39:48.481Z,3.00
2022-11-12T17:49:55.662Z,7.05
2022-11-12T17:55:00.484Z,3.55
2022-11-12T18:00:04.314Z,2.25
2022-11-12T18:05:10.526Z,1.67
2022-11-12T18:10:19.396Z,2.60
2022-11-12T18:15:23.196Z,2.42
2022-11-12T18:20:26.730Z,2.60
2022-11-12T18:25:31.513Z,4.30
2022-11-12T18:30:36.666Z,5.10
2022-11-12T18:35:40.127Z,3.22
2022-11-12T18:40:44.983Z,1.90
2022-11-12T18:45:55.423Z,2.45
2022-11-12T18:51:03.748Z,2.70
2022-11-12T18:56:14.769Z,3.67
2022-11-12T19:01:21.137Z,3.53
2022-11-12T19:06:26.719Z,3.22
2022-11-12T19:11:31.571Z,5.32
2022-11-12T19:16:34.977Z,2.83
2022-11-12T19:21:39.262Z,5.07
2022-11-12T19:26:43.976Z,4.63
2022-11-12T19:37:11.850Z,3.80
2022-11-12T19:42:15.498Z,2.42
2022-11-12T19:52:22.601Z,3.00
2022-11-12T19:57:28.081Z,3.43
2022-11-12T20:02:31.494Z,2.65
2022-11-12T20:07:35.050Z,4.80
2022-11-12T20:12:40.697Z,2.10
2022-11-12T20:17:44.292Z,4.22
2022-11-12T20:22:47.539Z,4.43
2022-11-12T20:27:52.458Z,3.10
2022-11-12T20:32:55.876Z,4.05
2022-11-12T20:38:00.167Z,3.08
2022-11-12T20:43:05.034Z,4.43
2022-11-12T20:48:08.461Z,3.30
2022-11-12T20:53:12.763Z,3.70
2022-11-12T20:58:17.592Z,4.15
2022-11-12T21:03:21.234Z,3.95
2022-11-12T21:08:24.955Z,4.80
2022-11-12T21:13:29.860Z,5.90
2022-11-12T21:18:34.172Z,2.15
2022-11-12T21:23:39.105Z,2.63
2022-11-12T21:28:45.881Z,2.88
2022-11-12T21:33:51.125Z,2.35
2022-11-12T21:38:54.751Z,1.48
2022-11-12T21:43:59.607Z,2.38
2022-11-12T21:49:03.308Z,3.90
2022-11-12T21:54:08.360Z,2.45
2022-11-12T21:59:13.091Z,2.30
2022-11-12T22:14:26.405Z,3.22
2022-11-12T22:19:29.884Z,5.40
2022-11-12T22:24:33.310Z,2.80
2022-11-12T22:29:38.044Z,2.67
2022-11-12T22:39:49.049Z,1.48
2022-11-12T22:44:53.773Z,2.25
2022-11-12T22:55:00.051Z,1.70
2022-11-12T23:00:09.580Z,1.40
2022-11-12T23:05:13.108Z,3.55
2022-11-12T23:10:16.400Z,1.73
2022-11-12T23:15:21.115Z,1.98
2022-11-12T23:20:24.723Z,2.13
2022-11-12T23:25:28.121Z,2.30
2022-11-12T23:30:32.825Z,1.73
2022-11-12T23:40:39.230Z,2.67
2022-11-12T23:45:44.260Z,2.08
2022-11-12T23:50:49.416Z,2.20
2022-11-12T23:55:53.031Z,1.73
